Time;durP1;ratioP1;P1;durP2;ratioP2;P2;SDS_P1;SDS_P2;PMS_P1;PMS_P2;Temp;Humidity;BMP_temperature;BMP_pressure;BME280_temperature;BME280_humidity;BME280_pressure;Samples;Min_cycle;Max_cycle;Signal;HPM_P1;HPM_P2
2021/11/06 09:36:00;;;;;;;15.30;8.85;;;;;;;6.51;75.28;100312.09;2610220;46;20533;-64
2021/11/06 09:38:29;;;;;;;12.27;8.20;;;;;;;6.50;75.24;100313.06;2623227;54;20026;-64
2021/11/06 09:41:03;;;;;;;15.15;8.55;;;;;;;6.56;74.86;100306.44;2622663;54;20073;-65
2021/11/06 09:43:33;;;;;;;13.18;9.30;;;;;;;6.56;74.83;100316.94;2623162;54;20085;-65
2021/11/06 09:46:03;;;;;;;11.65;9.00;;;;;;;6.67;74.99;100311.63;2623418;54;20045;-65
2021/11/06 09:48:33;;;;;;;12.52;9.25;;;;;;;6.78;75.39;100311.56;2623479;54;20034;-64
2021/11/06 09:51:07;;;;;;;10.00;8.18;;;;;;;6.78;74.67;100319.44;2623135;54;20038;-64
2021/11/06 09:53:40;;;;;;;12.60;8.60;;;;;;;6.75;75.01;100319.69;2623520;54;20584;-63
2021/11/06 09:56:11;;;;;;;11.87;8.63;;;;;;;6.82;74.51;100320.84;2622886;54;20034;-64
2021/11/06 09:58:42;;;;;;;13.55;9.68;;;;;;;6.79;74.38;100321.09;2622952;54;20169;-65
2021/11/06 10:01:12;;;;;;;11.38;8.82;;;;;;;6.83;74.59;100311.16;2622965;54;20066;-63
2021/11/06 10:03:42;;;;;;;18.63;9.85;;;;;;;6.87;74.11;100313.38;2622799;54;20603;-64
2021/11/06 10:06:23;;;;;;;13.57;9.82;;;;;;;6.88;74.71;100314.22;2622605;54;20084;-64
2021/11/06 10:08:54;;;;;;;12.90;9.95;;;;;;;6.93;74.11;100304.94;2622946;39;20437;-65
2021/11/06 10:11:25;;;;;;;11.40;9.43;;;;;;;7.07;74.37;100309.03;2623383;54;20561;-64
2021/11/06 10:14:03;;;;;;;13.25;9.52;;;;;;;7.16;74.25;100302.13;2623993;54;20053;-63
2021/11/06 10:16:35;;;;;;;16.63;9.82;;;;;;;7.19;74.12;100310.59;2623871;54;20085;-63
2021/11/06 10:19:10;;;;;;;13.23;10.25;;;;;;;7.30;74.35;100303.56;2623945;54;20034;-64
2021/11/06 10:21:44;;;;;;;15.00;10.57;;;;;;;7.39;74.10;100292.25;2623350;54;20034;-65
2021/11/06 10:24:13;;;;;;;;;;;;;;;7.55;74.06;100300.44;2623581;54;20035;-65
2021/11/06 10:26:43;;;;;;;17.70;12.10;;;;;;;7.65;73.46;100297.81;2623904;54;19946;-65
2021/11/06 10:29:15;;;;;;;16.30;11.02;;;;;;;7.71;73.52;100294.59;2624239;54;20031;-64
2021/11/06 10:32:06;;;;;;;14.95;11.75;;;;;;;7.83;73.14;100290.88;2623381;47;20053;-66
2021/11/06 10:34:38;;;;;;;16.90;11.40;;;;;;;7.86;72.65;100284.50;2622665;54;20603;-65
2021/11/06 10:37:13;;;;;;;14.73;10.68;;;;;;;7.93;72.80;100278.56;2623261;54;20440;-65
2021/11/06 10:39:57;;;;;;;18.48;11.90;;;;;;;7.96;72.10;100274.81;2622942;54;20034;-65
2021/11/06 10:42:28;;;;;;;17.95;12.75;;;;;;;8.09;72.22;100270.09;2622754;54;20045;-65
2021/11/06 10:45:11;;;;;;;14.18;11.63;;;;;;;8.14;71.36;100267.84;2622745;54;20035;-65
2021/11/06 10:47:59;;;;;;;17.17;12.85;;;;;;;8.04;70.63;100268.81;2623646;39;20423;-65
2021/11/06 10:50:48;;;;;;;14.38;11.82;;;;;;;8.00;71.92;100263.03;2623058;54;20026;-64
2021/11/06 10:53:43;;;;;;;18.52;11.98;;;;;;;8.18;71.23;100266.59;2623670;54;20033;-64
2021/11/06 10:56:33;;;;;;;15.02;12.63;;;;;;;8.26;71.69;100257.16;2623052;54;20030;-64
2021/11/06 10:59:10;;;;;;;15.85;12.10;;;;;;;8.26;72.12;100254.53;2623121;54;20057;-65
2021/11/06 11:01:42;;;;;;;13.48;11.13;;;;;;;8.26;72.07;100247.44;2624173;39;20456;-64
2021/11/06 11:04:13;;;;;;;14.48;11.18;;;;;;;8.36;72.16;100245.59;2623357;54;20062;-66
2021/11/06 11:06:46;;;;;;;14.90;11.27;;;;;;;8.53;72.00;100238.81;2623450;54;20545;-64
2021/11/06 11:09:20;;;;;;;14.50;10.23;;;;;;;8.65;71.82;100232.38;2623521;54;20102;-65
2021/11/06 11:11:52;;;;;;;15.43;11.52;;;;;;;8.62;71.47;100231.84;2622845;54;20026;-64
2021/11/06 11:14:23;;;;;;;14.05;10.98;;;;;;;8.66;71.28;100231.41;2619698;54;20054;-65
2021/11/06 11:16:58;;;;;;;15.98;11.85;;;;;;;8.69;71.07;100230.25;2620026;39;20422;-64
2021/11/06 11:19:36;;;;;;;14.02;10.65;;;;;;;8.68;70.67;100220.69;2621573;54;20541;-65
2021/11/06 11:22:06;;;;;;;14.38;11.18;;;;;;;8.78;71.36;100215.41;2622427;54;20038;-64
2021/11/06 11:24:38;;;;;;;14.00;10.93;;;;;;;8.85;71.13;100216.44;2622650;54;20038;-65
2021/11/06 11:27:08;;;;;;;16.52;12.57;;;;;;;8.89;71.16;100213.38;2622721;54;20567;-64
2021/11/06 11:29:39;;;;;;;15.75;12.07;;;;;;;9.01;71.14;100211.38;2622581;54;20026;-64
2021/11/06 11:32:11;;;;;;;15.65;11.50;;;;;;;9.12;71.24;100199.78;2623105;54;20026;-65
2021/11/06 11:34:42;;;;;;;13.52;11.32;;;;;;;9.29;70.61;100198.13;2623474;39;20421;-65
2021/11/06 11:37:12;;;;;;;14.30;10.50;;;;;;;9.21;69.98;100193.59;2623076;39;20436;-64
2021/11/06 11:39:45;;;;;;;15.27;10.73;;;;;;;9.24;70.40;100189.84;2622766;54;20022;-65
2021/11/06 11:42:40;;;;;;;14.10;10.93;;;;;;;9.27;70.07;100179.81;2622988;54;20026;-64
2021/11/06 11:45:19;;;;;;;;;;;;;;;9.28;70.22;100180.66;2621925;54;20035;-64
2021/11/06 11:47:55;;;;;;;14.02;10.90;;;;;;;9.32;70.15;100184.66;2621726;54;19962;-65
2021/11/06 11:50:30;;;;;;;15.25;12.63;;;;;;;9.42;70.61;100170.38;2622670;54;20209;-65
2021/11/06 11:53:03;;;;;;;14.25;12.75;;;;;;;9.49;69.68;100169.78;2622606;54;20572;-64
2021/11/06 11:55:40;;;;;;;14.52;12.55;;;;;;;9.50;69.75;100164.34;2622730;54;20030;-64
2021/11/06 11:58:14;;;;;;;15.50;11.40;;;;;;;9.47;69.97;100164.66;2623073;54;20026;-64
2021/11/06 12:00:46;;;;;;;14.18;11.65;;;;;;;9.54;70.25;100154.31;2622517;54;20046;-65
2021/11/06 12:03:28;;;;;;;15.30;11.43;;;;;;;9.61;70.29;100156.19;2622995;54;20034;-65
2021/11/06 12:05:58;;;;;;;12.98;9.77;;;;;;;9.68;69.79;100153.78;2622623;54;20030;-65
2021/11/06 12:08:36;;;;;;;17.42;14.10;;;;;;;9.83;70.00;100152.22;2622936;54;20069;-65
2021/11/06 12:11:30;;;;;;;15.05;12.45;;;;;;;9.90;69.50;100140.03;2622326;54;20038;-64
2021/11/06 12:14:02;;;;;;;12.80;9.95;;;;;;;10.01;69.76;100140.78;2622871;54;20033;-65
2021/11/06 12:16:47;;;;;;;13.90;10.07;;;;;;;10.04;69.39;100136.03;2622997;39;20466;-66
2021/11/06 12:19:36;;;;;;;10.98;9.48;;;;;;;10.13;68.90;100142.19;2622915;54;20564;-66
2021/11/06 12:22:11;;;;;;;10.45;9.35;;;;;;;10.13;68.82;100136.88;2622661;39;20427;-67
2021/11/06 12:24:42;;;;;;;11.55;8.88;;;;;;;10.18;68.81;100134.59;2622137;54;20053;-67
2021/11/06 12:27:16;;;;;;;12.57;9.35;;;;;;;10.12;69.07;100129.94;2622652;54;20039;-68
2021/11/06 12:29:54;;;;;;;12.18;9.57;;;;;;;10.04;68.92;100124.59;2622741;54;20038;-68
2021/11/06 12:32:33;;;;;;;11.48;10.27;;;;;;;10.00;68.71;100128.53;2623452;39;20398;-69
2021/11/06 12:35:20;;;;;;;10.80;9.45;;;;;;;9.88;69.04;100120.91;2623294;54;20038;-68
2021/11/06 12:37:55;;;;;;;12.18;10.02;;;;;;;9.79;69.62;100123.63;2623362;54;20030;-68
2021/11/06 12:40:36;;;;;;;10.77;9.45;;;;;;;9.59;70.10;100120.34;2623315;54;20061;-67
2021/11/06 12:43:15;;;;;;;11.68;9.93;;;;;;;9.39;70.39;100119.72;2622765;47;20054;-67
2021/11/06 12:45:47;;;;;;;13.02;9.68;;;;;;;9.23;70.78;100119.59;2622882;54;20038;-67
2021/11/06 12:48:36;;;;;;;13.00;10.00;;;;;;;9.04;71.24;100123.19;2623541;54;20592;-67
2021/11/06 12:51:09;;;;;;;11.40;9.40;;;;;;;8.99;71.58;100117.56;2622532;47;20077;-67
2021/11/06 12:53:41;;;;;;;14.37;10.10;;;;;;;9.05;71.57;100125.69;2623751;54;20035;-67
2021/11/06 12:56:14;;;;;;;19.55;11.05;;;;;;;9.22;71.13;100120.56;2623255;51;20026;-67
2021/11/06 12:58:48;;;;;;;12.15;10.40;;;;;;;9.34;71.36;100120.16;2623407;54;20027;-67
2021/11/06 13:01:24;;;;;;;10.55;8.77;;;;;;;9.45;70.64;100110.34;2623308;54;20030;-67
2021/11/06 13:03:54;;;;;;;9.90;8.80;;;;;;;9.53;70.49;100108.59;2623996;54;20031;-67
2021/11/06 13:06:33;;;;;;;13.73;10.52;;;;;;;9.54;70.36;100112.06;2623013;54;20026;-67
2021/11/06 13:09:15;;;;;;;12.85;9.63;;;;;;;9.60;70.44;100088.53;2624155;54;20034;-67
2021/11/06 13:12:03;;;;;;;11.43;9.20;;;;;;;9.68;70.22;100096.50;2622851;54;20538;-67
2021/11/06 13:14:48;;;;;;;11.90;10.05;;;;;;;9.81;70.30;100095.25;2623810;54;20034;-67
2021/11/06 13:17:22;;;;;;;;;;;;;;;9.83;70.01;100088.81;2623516;54;20038;-67
2021/11/06 13:20:05;;;;;;;12.20;10.38;;;;;;;9.84;69.78;100093.16;2623507;54;19947;-68
2021/11/06 13:22:52;;;;;;;11.45;8.80;;;;;;;9.86;69.53;100088.53;2624005;54;20049;-68
2021/11/06 13:25:25;;;;;;;12.07;8.85;;;;;;;9.91;69.66;100094.16;2623826;54;20038;-68
2021/11/06 13:28:00;;;;;;;9.95;8.50;;;;;;;10.00;69.07;100086.28;2624430;54;20034;-68
2021/11/06 13:30:39;;;;;;;9.70;8.63;;;;;;;10.00;68.82;100081.84;2624317;54;20034;-68
2021/11/06 13:33:13;;;;;;;12.32;9.07;;;;;;;10.04;68.67;100077.03;2623103;54;20026;-68
2021/11/06 13:35:44;;;;;;;;;;;;;;;10.11;67.97;100067.50;2622911;54;20030;-68
2021/11/06 13:38:20;;;;;;;12.57;9.23;;;;;;;10.21;67.89;100077.97;2623039;54;19955;-67
2021/11/06 13:40:57;;;;;;;11.10;9.25;;;;;;;10.22;67.97;100069.03;2621753;51;20058;-68
2021/11/06 13:43:29;;;;;;;13.10;8.35;;;;;;;10.29;67.77;100065.66;2622317;54;20038;-68
2021/11/06 13:46:14;;;;;;;8.23;6.70;;;;;;;10.33;66.77;100066.97;2622750;47;20084;-68
2021/11/06 13:48:52;;;;;;;9.65;8.13;;;;;;;10.32;66.78;100057.38;2623075;54;20058;-68
2021/11/06 13:51:24;;;;;;;13.10;9.43;;;;;;;10.38;66.42;100053.28;2624334;54;20046;-68
2021/11/06 13:53:59;;;;;;;9.60;7.32;;;;;;;10.36;66.01;100049.94;2625097;39;20237;-68
2021/11/06 13:56:30;;;;;;;9.43;7.43;;;;;;;10.32;66.19;100048.63;2619961;54;20065;-68
2021/11/06 13:59:01;;;;;;;10.63;7.75;;;;;;;10.31;65.74;100046.97;2620314;39;20433;-67
2021/11/06 14:01:33;;;;;;;9.15;6.85;;;;;;;10.31;65.90;100044.31;2619734;54;20050;-68
2021/11/06 14:04:03;;;;;;;8.02;6.82;;;;;;;10.31;66.22;100036.41;2619865;54;20541;-68
2021/11/06 14:06:40;;;;;;;6.60;5.75;;;;;;;10.24;65.86;100038.00;2619729;54;20022;-68
2021/11/06 14:09:11;;;;;;;9.98;7.22;;;;;;;10.22;66.44;100035.50;2620275;54;20085;-68
2021/11/06 14:11:52;;;;;;;8.95;7.28;;;;;;;10.17;66.41;100030.72;2622769;54;20077;-68
2021/11/06 14:14:24;;;;;;;12.55;8.50;;;;;;;10.21;66.64;100030.41;2624233;47;20034;-68
2021/11/06 14:17:14;;;;;;;8.48;7.07;;;;;;;10.17;66.86;100022.78;2624720;54;20569;-68
2021/11/06 14:19:56;;;;;;;8.38;7.28;;;;;;;10.15;66.43;100026.56;2624129;54;20511;-68
2021/11/06 14:22:31;;;;;;;9.98;7.28;;;;;;;10.12;67.14;100021.59;2623912;54;20077;-67
2021/11/06 14:25:03;;;;;;;7.78;6.93;;;;;;;10.13;66.79;100015.34;2624326;47;20031;-67
2021/11/06 14:27:34;;;;;;;9.43;7.05;;;;;;;10.17;66.99;100024.59;2624515;54;20038;-68
2021/11/06 14:30:15;;;;;;;7.78;6.90;;;;;;;10.21;67.03;100014.56;2623555;47;20038;-67
2021/11/06 14:33:01;;;;;;;7.70;6.35;;;;;;;10.21;67.37;100022.47;2621540;54;20546;-67
2021/11/06 14:35:33;;;;;;;6.28;5.68;;;;;;;10.23;66.90;100013.38;2623232;54;20042;-68
2021/11/06 14:38:04;;;;;;;7.50;6.60;;;;;;;10.24;66.72;100004.47;2624205;54;20031;-67
2021/11/06 14:40:35;;;;;;;7.70;6.53;;;;;;;10.27;66.47;100006.81;2624182;54;20564;-68
2021/11/06 14:43:09;;;;;;;6.57;5.15;;;;;;;10.29;66.45;100001.38;2624234;54;20031;-67
2021/11/06 14:45:39;;;;;;;7.65;5.00;;;;;;;10.26;66.17;99999.88;2623737;54;20054;-67
2021/11/06 14:48:12;;;;;;;5.28;3.90;;;;;;;10.26;65.86;99984.03;2624552;54;20031;-69
2021/11/06 14:50:42;;;;;;;9.30;3.80;;;;;;;10.24;64.71;99987.78;2624176;54;20034;-68
2021/11/06 14:53:13;;;;;;;4.28;3.33;;;;;;;10.13;64.49;99983.63;2624363;54;20041;-68
2021/11/06 14:55:55;;;;;;;6.32;3.58;;;;;;;10.09;63.61;99982.31;2624430;54;20046;-68
2021/11/06 14:58:43;;;;;;;5.43;3.55;;;;;;;10.05;63.74;99980.97;2625497;54;20030;-68
2021/11/06 15:01:15;;;;;;;6.40;4.35;;;;;;;9.95;63.50;99977.63;2624893;54;20054;-67
2021/11/06 15:03:59;;;;;;;5.25;3.92;;;;;;;9.89;63.36;99979.09;2624048;54;20026;-68
2021/11/06 15:06:30;;;;;;;5.50;4.95;;;;;;;9.84;63.74;99976.13;2624120;47;20034;-68
2021/11/06 15:09:00;;;;;;;5.47;4.10;;;;;;;9.80;63.93;99974.78;2624585;54;20030;-67
2021/11/06 15:11:29;;;;;;;7.18;4.57;;;;;;;9.75;63.69;99977.03;2624166;47;20049;-67
2021/11/06 15:13:59;;;;;;;5.63;4.82;;;;;;;9.74;64.32;99970.94;2625847;39;20432;-68
2021/11/06 15:16:34;;;;;;;6.85;4.55;;;;;;;9.68;64.20;99967.13;2624952;54;20053;-68
2021/11/06 15:19:06;;;;;;;7.18;4.20;;;;;;;9.60;64.24;99967.09;2624252;54;20034;-68
2021/11/06 15:21:38;;;;;;;9.48;5.30;;;;;;;9.57;64.95;99974.50;2622818;54;20042;-68
2021/11/06 15:24:09;;;;;;;6.50;5.00;;;;;;;9.54;65.17;99958.97;2624394;54;20056;-68
2021/11/06 15:26:39;;;;;;;7.28;4.65;;;;;;;9.46;65.04;99959.75;2625433;54;20038;-68
2021/11/06 15:29:09;;;;;;;6.78;4.80;;;;;;;9.43;65.57;99955.63;2625842;54;20035;-68
2021/11/06 15:31:39;;;;;;;7.40;5.15;;;;;;;9.41;65.35;99962.03;2624521;47;20031;-69
2021/11/06 15:34:11;;;;;;;8.23;5.60;;;;;;;9.36;65.86;99965.16;2624285;51;20062;-68
2021/11/06 15:36:41;;;;;;;8.18;5.80;;;;;;;9.28;66.04;99959.00;2624907;54;20038;-67
2021/11/06 15:39:10;;;;;;;8.07;5.50;;;;;;;9.22;66.61;99951.69;2624154;47;20038;-68
2021/11/06 15:41:40;;;;;;;9.15;5.68;;;;;;;9.14;66.36;99955.94;2621432;54;20122;-68
2021/11/06 15:44:10;;;;;;;8.93;5.88;;;;;;;9.07;66.82;99957.56;2620505;54;20053;-67
2021/11/06 15:46:40;;;;;;;9.23;5.68;;;;;;;9.01;66.75;99950.25;2622770;54;20030;-67
2021/11/06 15:49:14;;;;;;;8.98;6.55;;;;;;;8.89;67.10;99949.66;2624955;54;20042;-68
2021/11/06 15:51:50;;;;;;;8.20;5.93;;;;;;;8.81;67.74;99946.97;2623846;54;20089;-68
2021/11/06 15:54:20;;;;;;;8.55;6.25;;;;;;;8.77;67.73;99948.25;2624236;54;20041;-65
2021/11/06 15:56:50;;;;;;;8.30;6.30;;;;;;;8.74;68.36;99945.94;2624200;54;20034;-66
2021/11/06 15:59:19;;;;;;;12.00;6.47;;;;;;;8.66;68.08;99951.16;2624207;47;20038;-70
2021/11/06 16:01:49;;;;;;;9.75;6.40;;;;;;;8.58;68.76;99956.34;2624298;54;20050;-66
2021/11/06 16:04:21;;;;;;;10.73;6.63;;;;;;;8.53;68.77;99954.16;2623994;47;20050;-65
2021/11/06 16:06:51;;;;;;;10.35;6.28;;;;;;;8.46;69.12;99958.38;2623510;54;20294;-66
2021/11/06 16:09:21;;;;;;;10.63;7.00;;;;;;;8.38;69.74;99960.94;2623375;54;20097;-66
2021/11/06 16:11:51;;;;;;;8.23;7.28;;;;;;;8.33;69.60;99958.72;2624190;39;20449;-67
2021/11/06 16:14:20;;;;;;;15.80;10.63;;;;;;;8.26;70.05;99959.47;2624222;54;20030;-66
2021/11/06 16:16:52;;;;;;;16.70;13.07;;;;;;;8.19;70.52;99959.22;2623954;47;20058;-66
2021/11/06 16:19:28;;;;;;;10.52;9.23;;;;;;;8.12;70.38;99960.78;2624650;39;20460;-66
2021/11/06 16:22:02;;;;;;;10.00;8.88;;;;;;;8.08;70.74;99960.28;2624124;54;20042;-67
2021/11/06 16:24:32;;;;;;;;;;;;;;;7.98;71.21;99956.88;2624340;54;20584;-67
2021/11/06 16:27:22;;;;;;;8.20;7.18;;;;;;;7.94;71.41;99964.22;2624307;54;20010;-66
2021/11/06 16:29:51;;;;;;;12.23;8.25;;;;;;;7.88;71.52;99966.63;2624560;54;20026;-67
2021/11/06 16:32:21;;;;;;;8.90;7.07;;;;;;;7.83;71.49;99963.59;2623861;54;20034;-66
2021/11/06 16:34:53;;;;;;;12.13;7.60;;;;;;;7.80;71.74;99972.63;2624316;54;20058;-66
2021/11/06 16:37:23;;;;;;;9.90;7.45;;;;;;;7.73;72.14;99961.03;2624162;54;20034;-66
2021/11/06 16:39:52;;;;;;;10.18;7.90;;;;;;;7.63;72.42;99968.13;2624641;54;20031;-64
2021/11/06 16:42:24;;;;;;;11.50;9.02;;;;;;;7.56;72.36;99969.69;2624444;54;20034;-66
2021/11/06 16:44:54;;;;;;;12.95;9.57;;;;;;;7.46;72.96;99969.72;2625390;39;20449;-67
2021/11/06 16:47:25;;;;;;;11.88;9.68;;;;;;;7.38;72.83;99972.22;2623665;47;20034;-66
2021/11/06 16:49:57;;;;;;;13.60;10.90;;;;;;;7.28;73.25;99976.69;2624269;54;20090;-68
2021/11/06 16:52:27;;;;;;;13.70;10.35;;;;;;;7.18;73.38;99979.34;2624577;54;20034;-66
2021/11/06 16:54:56;;;;;;;14.32;12.00;;;;;;;7.13;73.81;99986.81;2624809;54;20045;-66
2021/11/06 16:57:26;;;;;;;15.30;11.25;;;;;;;7.11;73.94;99983.53;2624069;54;20033;-67
2021/11/06 16:59:56;;;;;;;16.90;12.98;;;;;;;7.07;73.76;99985.59;2624716;54;20033;-66
2021/11/06 17:02:25;;;;;;;17.05;11.77;;;;;;;6.99;73.96;99993.38;2624018;47;20026;-67
2021/11/06 17:05:03;;;;;;;18.08;12.32;;;;;;;6.93;74.19;99996.53;2624213;54;20050;-67
2021/11/06 17:07:35;;;;;;;16.40;11.95;;;;;;;6.89;74.12;99993.34;2624023;54;20533;-66
2021/11/06 17:10:13;;;;;;;22.23;14.63;;;;;;;6.87;74.20;99992.69;2621892;54;20033;-66
2021/11/06 17:12:43;;;;;;;19.38;14.27;;;;;;;6.78;74.37;99997.97;2622634;54;20042;-67
2021/11/06 17:15:14;;;;;;;21.35;15.57;;;;;;;6.73;74.72;99990.47;2624338;54;20065;-67
2021/11/06 17:17:45;;;;;;;39.33;24.50;;;;;;;6.69;74.88;99991.72;2624523;54;20042;-67
2021/11/06 17:20:19;;;;;;;30.00;20.13;;;;;;;6.75;74.63;99996.44;2624106;54;20035;-67
2021/11/06 17:22:49;;;;;;;36.13;21.48;;;;;;;6.66;74.71;99994.63;2624497;54;20544;-65
2021/11/06 17:25:18;;;;;;;23.65;16.33;;;;;;;6.63;75.07;99990.47;2623023;54;20031;-67
2021/11/06 17:27:48;;;;;;;25.80;18.27;;;;;;;6.61;75.08;99996.81;2622705;39;20450;-66
2021/11/06 17:30:20;;;;;;;24.13;17.00;;;;;;;6.62;75.22;99990.63;2623052;54;20034;-66
2021/11/06 17:32:53;;;;;;;25.58;17.33;;;;;;;6.60;75.38;99996.00;2623888;54;20045;-67
2021/11/06 17:35:26;;;;;;;26.65;17.30;;;;;;;6.60;75.27;99993.38;2623333;54;20022;-66
2021/11/06 17:37:56;;;;;;;26.33;17.20;;;;;;;6.59;75.31;99988.28;2624447;54;20130;-67
2021/11/06 17:40:27;;;;;;;27.35;18.58;;;;;;;6.55;75.95;99989.50;2623380;54;20038;-66
2021/11/06 17:42:57;;;;;;;26.92;18.45;;;;;;;6.50;75.77;99992.56;2623873;54;20146;-67
2021/11/06 17:45:29;;;;;;;26.60;17.95;;;;;;;6.55;76.04;100000.03;2623951;54;20573;-66
2021/11/06 17:48:00;;;;;;;26.13;18.42;;;;;;;6.54;76.22;99995.75;2624084;54;20034;-65
2021/11/06 17:50:40;;;;;;;29.80;19.67;;;;;;;6.56;76.70;99992.00;2623829;39;20426;-67
2021/11/06 17:53:14;;;;;;;28.83;19.15;;;;;;;6.56;76.85;99993.78;2623323;54;20035;-65
2021/11/06 17:55:45;;;;;;;28.75;18.88;;;;;;;6.59;77.09;99994.34;2623806;54;20038;-65
2021/11/06 17:58:16;;;;;;;33.45;20.48;;;;;;;6.62;77.10;99995.88;2623615;54;20034;-66
2021/11/06 18:00:50;;;;;;;32.47;20.58;;;;;;;6.69;77.15;100000.44;2623966;54;20057;-65
2021/11/06 18:03:20;;;;;;;32.00;19.35;;;;;;;6.78;77.13;99997.97;2623677;47;20027;-65
2021/11/06 18:05:52;;;;;;;31.52;19.75;;;;;;;6.86;77.04;100000.72;2623571;54;20034;-65
2021/11/06 18:08:22;;;;;;;33.28;20.52;;;;;;;6.89;77.21;99995.16;2623557;54;20565;-66
2021/11/06 18:10:52;;;;;;;36.88;21.20;;;;;;;6.93;77.03;100000.00;2623136;54;20049;-66
2021/11/06 18:13:22;;;;;;;30.83;20.00;;;;;;;6.99;77.34;99992.53;2619834;47;20572;-65
2021/11/06 18:15:52;;;;;;;32.45;20.15;;;;;;;7.02;77.36;99989.59;2619256;54;20085;-65
2021/11/06 18:18:21;;;;;;;31.60;20.27;;;;;;;7.07;77.16;99987.41;2621866;54;20039;-67
2021/11/06 18:20:54;;;;;;;28.80;18.55;;;;;;;7.14;77.10;99991.09;2623310;54;20035;-67
2021/11/06 18:23:24;;;;;;;29.75;20.48;;;;;;;7.13;76.75;99986.81;2623604;47;20034;-66
2021/11/06 18:25:58;;;;;;;30.60;20.38;;;;;;;7.07;76.50;99975.09;2623818;54;20119;-67
2021/11/06 18:28:28;;;;;;;32.42;21.83;;;;;;;7.00;76.84;99971.34;2622997;54;20545;-66
2021/11/06 18:30:59;;;;;;;34.00;22.52;;;;;;;7.07;76.74;99969.00;2624027;54;20561;-67
2021/11/06 18:33:28;;;;;;;30.67;19.65;;;;;;;7.11;76.85;99965.94;2624314;54;20026;-67
2021/11/06 18:36:00;;;;;;;28.75;19.55;;;;;;;7.13;76.10;99958.72;2624169;47;20588;-68
2021/11/06 18:38:30;;;;;;;28.25;19.90;;;;;;;7.16;76.03;99960.25;2625120;39;20411;-70
2021/11/06 18:41:00;;;;;;;25.38;17.80;;;;;;;7.11;75.98;99954.59;2624577;54;20038;-68
2021/11/06 18:43:30;;;;;;;28.92;18.23;;;;;;;6.99;75.53;99955.75;2624743;54;20530;-66
2021/11/06 18:46:02;;;;;;;24.27;16.70;;;;;;;6.87;75.28;99942.75;2625025;39;20419;-66
2021/11/06 18:48:33;;;;;;;21.95;16.23;;;;;;;6.85;75.70;99936.78;2624419;54;20042;-66
2021/11/06 18:51:05;;;;;;;26.63;18.42;;;;;;;6.81;75.56;99934.56;2624074;46;20058;-67
2021/11/06 18:53:34;;;;;;;27.55;18.25;;;;;;;6.76;75.57;99931.56;2623838;54;20545;-66
2021/11/06 18:56:04;;;;;;;24.13;16.98;;;;;;;6.64;75.17;99931.69;2624277;54;20038;-67
2021/11/06 18:58:33;;;;;;;26.58;17.20;;;;;;;6.54;75.14;99928.25;2623639;54;20026;-66
2021/11/06 19:01:03;;;;;;;28.85;17.92;;;;;;;6.49;75.66;99919.13;2623635;54;20031;-66
2021/11/06 19:03:33;;;;;;;27.60;17.55;;;;;;;6.39;75.62;99919.13;2623221;54;20034;-67
2021/11/06 19:06:06;;;;;;;23.17;16.67;;;;;;;6.43;75.62;99910.81;2622616;39;20468;-67
2021/11/06 19:08:36;;;;;;;25.35;17.92;;;;;;;6.47;75.51;99902.69;2622822;54;20019;-66
2021/11/06 19:11:07;;;;;;;26.83;18.38;;;;;;;6.45;75.45;99902.84;2622812;54;20026;-66
2021/11/06 19:13:37;;;;;;;28.65;17.65;;;;;;;6.38;75.66;99902.53;2622395;54;20039;-66
2021/11/06 19:16:07;;;;;;;26.15;17.10;;;;;;;6.35;75.98;99894.94;2619955;47;20034;-67
2021/11/06 19:18:37;;;;;;;26.17;16.85;;;;;;;6.31;76.17;99890.94;2620640;54;20034;-67
2021/11/06 19:21:09;;;;;;;26.02;16.83;;;;;;;6.30;76.11;99885.81;2620410;54;20047;-67
2021/11/06 19:23:39;;;;;;;24.42;15.60;;;;;;;6.25;76.25;99873.13;2620760;54;20038;-67
2021/11/06 19:26:09;;;;;;;28.33;17.83;;;;;;;6.25;75.96;99865.25;2620798;54;20816;-66
2021/11/06 19:28:38;;;;;;;25.92;17.23;;;;;;;6.25;76.07;99867.88;2619915;47;20069;-66
2021/11/06 19:31:08;;;;;;;24.70;16.33;;;;;;;6.29;76.03;99856.13;2620727;39;20429;-67
2021/11/06 19:33:41;;;;;;;24.50;15.50;;;;;;;6.27;75.69;99852.78;2620004;47;20046;-66
2021/11/06 19:36:17;;;;;;;25.05;16.05;;;;;;;6.20;76.17;99849.06;2620673;54;20030;-66
2021/11/06 19:38:47;;;;;;;27.45;17.48;;;;;;;6.13;75.92;99850.59;2619835;47;20077;-66
2021/11/06 19:41:18;;;;;;;28.92;18.00;;;;;;;6.04;75.96;99846.16;2620392;54;20030;-67
2021/11/06 19:43:48;;;;;;;26.95;16.42;;;;;;;6.02;76.59;99853.34;2620445;54;20038;-66
2021/11/06 19:46:18;;;;;;;27.15;16.77;;;;;;;6.05;76.66;99860.97;2621215;54;20038;-66
2021/11/06 19:48:48;;;;;;;23.27;15.80;;;;;;;6.03;76.25;99865.50;2622389;39;20425;-66
2021/11/06 19:51:20;;;;;;;27.85;16.35;;;;;;;6.04;76.40;99856.66;2620955;39;20453;-66
2021/11/06 19:53:49;;;;;;;27.50;16.73;;;;;;;6.07;76.43;99864.25;2619973;54;20034;-67
2021/11/06 19:56:19;;;;;;;25.77;16.83;;;;;;;6.07;76.79;99857.22;2620320;54;20081;-66
2021/11/06 19:58:49;;;;;;;27.63;17.33;;;;;;;6.05;76.60;99856.53;2619748;54;20030;-66
2021/11/06 20:01:19;;;;;;;25.30;16.05;;;;;;;6.04;76.97;99857.50;2620533;54;20081;-67
2021/11/06 20:03:48;;;;;;;26.38;16.65;;;;;;;6.05;76.39;99859.16;2623680;54;20098;-67
2021/11/06 20:06:20;;;;;;;26.63;15.65;;;;;;;6.08;76.78;99877.25;2623648;54;20057;-69
2021/11/06 20:08:54;;;;;;;25.55;16.00;;;;;;;6.11;76.92;99868.25;2623747;54;20035;-67
2021/11/06 20:11:24;;;;;;;26.92;16.42;;;;;;;6.15;76.57;99874.91;2622766;47;20062;-68
2021/11/06 20:13:54;;;;;;;32.80;20.75;;;;;;;6.17;76.76;99883.47;2622580;54;20034;-66
2021/11/06 20:16:24;;;;;;;60.85;31.20;;;;;;;6.23;76.67;99887.34;2622936;54;20035;-67
2021/11/06 20:18:54;;;;;;;35.30;21.80;;;;;;;6.32;76.60;99884.69;2623572;54;20031;-65
2021/11/06 20:21:26;;;;;;;36.47;22.35;;;;;;;6.40;76.94;99886.63;2623403;39;20407;-66
2021/11/06 20:23:58;;;;;;;31.15;19.95;;;;;;;6.45;76.45;99885.28;2624117;54;20820;-66
2021/11/06 20:26:28;;;;;;;29.60;17.95;;;;;;;6.49;76.40;99885.81;2622764;54;20534;-67
2021/11/06 20:28:58;;;;;;;27.77;17.75;;;;;;;6.43;76.68;99889.81;2623064;54;20030;-66
2021/11/06 20:31:28;;;;;;;27.85;17.65;;;;;;;6.45;76.53;99893.16;2622949;54;20038;-67
2021/11/06 20:33:57;;;;;;;26.95;17.23;;;;;;;6.45;76.42;99887.91;2622850;47;20042;-67
2021/11/06 20:36:30;;;;;;;28.25;18.77;;;;;;;6.43;76.05;99897.69;2623189;54;20030;-66
2021/11/06 20:38:59;;;;;;;29.00;18.50;;;;;;;6.40;76.47;99899.78;2623408;54;20029;-66
2021/11/06 20:41:29;;;;;;;27.83;18.02;;;;;;;6.41;76.61;99907.53;2623234;54;20031;-66
2021/11/06 20:44:01;;;;;;;26.70;18.27;;;;;;;6.39;76.76;99901.56;2623123;54;20046;-67
2021/11/06 20:46:32;;;;;;;27.70;17.13;;;;;;;6.44;76.84;99915.09;2622001;54;20027;-66
2021/11/06 20:49:01;;;;;;;29.02;18.70;;;;;;;6.40;76.64;99918.97;2621824;47;20039;-66
2021/11/06 20:51:35;;;;;;;31.10;18.80;;;;;;;6.40;76.67;99911.09;2623510;54;20644;-67
2021/11/06 20:54:07;;;;;;;43.00;20.90;;;;;;;6.44;76.91;99912.47;2623479;54;20967;-66
2021/11/06 20:56:37;;;;;;;29.90;17.80;;;;;;;6.48;76.59;99914.84;2621714;54;20538;-67
2021/11/06 20:59:07;;;;;;;34.08;19.45;;;;;;;6.49;76.31;99909.47;2622241;54;20031;-67
2021/11/06 21:01:36;;;;;;;30.15;18.77;;;;;;;6.53;76.82;99904.72;2620836;54;20030;-66
2021/11/06 21:04:07;;;;;;;29.23;19.30;;;;;;;6.58;77.03;99903.38;2618742;51;20042;-67
2021/11/06 21:06:39;;;;;;;28.30;18.63;;;;;;;6.63;76.48;99888.00;2618986;54;20030;-67
2021/11/06 21:09:14;;;;;;;25.30;16.73;;;;;;;6.67;76.73;99883.28;2619389;54;20043;-67
2021/11/06 21:11:58;;;;;;;28.55;16.92;;;;;;;6.64;76.63;99892.28;2619222;54;20038;-67
2021/11/06 21:17:32;;;;;;;50.05;29.55;;;;;;;6.70;76.81;99883.84;2618879;54;20089;-67
2021/11/06 21:20:02;;;;;;;30.42;20.00;;;;;;;6.70;76.22;99880.41;2622377;54;20620;-66
2021/11/06 21:22:36;;;;;;;29.08;19.02;;;;;;;6.69;76.22;99889.22;2623024;54;20081;-67
2021/11/06 21:25:09;;;;;;;28.85;18.40;;;;;;;6.74;76.08;99894.91;2622468;54;20046;-67
2021/11/06 21:27:38;;;;;;;26.20;17.67;;;;;;;6.69;76.30;99879.56;2623426;54;20061;-66
2021/11/06 21:30:10;;;;;;;29.02;18.33;;;;;;;6.73;76.67;99866.94;2623982;54;20049;-69
2021/11/06 21:32:39;;;;;;;27.77;17.52;;;;;;;6.74;76.24;99859.91;2623557;54;20053;-66